Terminal Aerodrome Forecast
Issued by NWS

Home | Current Version | Previous Version | Text Only | Print | Product List | Glossary Off
Versions: 1 2 3 4 5 6 7 8 9 10 11 12 13 14 15 16 17 18 19 20

986
FTUS43 KICT 151435 AAA
TAFCNU
TAF AMD
KCNU 151435Z 1515/1612 06006KT 4SM -RADZ SCT004 OVC006
      TEMPO 1515/1519 2SM FZRA BR OVC004
     FM160400 09008KT 5SM RA VCTS SCT004 OVC006CB=

USA.gov is the U.S. government's official web portal to all federal, state and local government web resources and services.